Terminal Aerodrome Forecast
Issued by NWS

Home | Current Version | Previous Version | Text Only | Print | Product List | Glossary On
Versions: 1 2 3 4 5 6 7 8 9 10 11 12 13 14 15 16 17 18
000
FTUS43 KEAX 291100
TAFMKC
TAF
KMKC 291128Z 2912/3012 09004KT P6SM SKC
     FM292000 07009KT P6SM BKN025
     FM300500 03012G20KT 5SM BR BKN020=

USA.gov is the U.S. government's official web portal to all federal, state and local government web resources and services.